createdAt,value
2018-12-24T00:00:27.474Z,5.07
2018-12-24T00:01:27.430Z,5.02
2018-12-24T00:02:27.416Z,5.00
2018-12-24T00:03:27.358Z,4.96
2018-12-24T00:04:27.308Z,4.99
2018-12-24T00:05:27.263Z,5.03
2018-12-24T00:06:27.254Z,4.91
2018-12-24T00:07:27.190Z,4.92
2018-12-24T00:08:27.166Z,4.94
2018-12-24T00:09:27.087Z,5.00
2018-12-24T00:10:27.039Z,4.91
2018-12-24T00:11:27.025Z,4.92
2018-12-24T00:12:26.975Z,4.92
2018-12-24T00:13:26.943Z,4.78
2018-12-24T00:14:26.910Z,4.86
2018-12-24T00:15:26.898Z,4.84
2018-12-24T00:16:26.790Z,4.82
2018-12-24T00:17:26.769Z,4.86
2018-12-24T00:18:26.701Z,4.85
2018-12-24T00:19:26.675Z,4.84
2018-12-24T00:20:26.625Z,4.85
2018-12-24T00:21:26.582Z,4.82
2018-12-24T00:22:26.559Z,4.88
2018-12-24T00:23:26.503Z,4.78
2018-12-24T00:24:26.454Z,4.77
2018-12-24T00:25:26.422Z,4.73
2018-12-24T00:26:26.358Z,4.73
2018-12-24T00:27:26.338Z,4.77
2018-12-24T00:28:26.291Z,4.70
2018-12-24T00:29:26.239Z,4.62
2018-12-24T00:30:26.185Z,4.75
2018-12-24T00:31:26.180Z,4.67
2018-12-24T00:32:26.102Z,4.58
2018-12-24T00:33:26.075Z,4.67
2018-12-24T00:34:26.024Z,4.75
2018-12-24T00:35:25.983Z,4.73
2018-12-24T00:36:25.935Z,4.65
2018-12-24T00:37:25.908Z,4.66
2018-12-24T00:38:25.984Z,4.66
2018-12-24T00:39:25.796Z,4.62
2018-12-24T00:40:25.744Z,4.60
2018-12-24T00:41:25.708Z,4.72
2018-12-24T00:42:25.658Z,4.59
2018-12-24T00:43:25.622Z,4.65
2018-12-24T00:44:25.584Z,4.62
2018-12-24T00:45:25.533Z,4.63
2018-12-24T00:46:25.501Z,4.63
2018-12-24T00:47:25.465Z,4.65
2018-12-24T00:48:25.418Z,4.63
2018-12-24T00:49:25.365Z,4.58
2018-12-24T00:50:25.316Z,4.55
2018-12-24T00:51:25.265Z,4.63
2018-12-24T00:52:25.220Z,4.67
2018-12-24T00:53:25.208Z,4.60
2018-12-24T00:54:25.139Z,4.65
2018-12-24T00:55:25.105Z,4.65
2018-12-24T00:56:25.077Z,4.67
2018-12-24T00:57:25.010Z,4.62
2018-12-24T00:58:24.953Z,4.63
2018-12-24T00:59:24.953Z,4.58
2018-12-24T01:00:24.937Z,4.63
2018-12-24T01:01:24.867Z,4.60
2018-12-24T01:02:24.791Z,4.62
2018-12-24T01:03:24.796Z,4.62
2018-12-24T01:04:24.717Z,4.65
2018-12-24T01:05:24.678Z,4.65
2018-12-24T01:06:24.620Z,4.65
2018-12-24T01:07:24.580Z,4.62
2018-12-24T01:08:24.547Z,4.59
2018-12-24T01:09:24.505Z,4.63
2018-12-24T01:10:24.457Z,4.67
2018-12-24T01:11:24.418Z,4.67
2018-12-24T01:12:24.915Z,4.66
2018-12-24T01:13:24.343Z,4.63
2018-12-24T01:14:24.299Z,4.75
2018-12-24T01:15:24.231Z,4.65
2018-12-24T01:16:24.204Z,4.77
2018-12-24T01:17:24.142Z,4.66
2018-12-24T01:18:24.110Z,4.78
2018-12-24T01:19:24.056Z,4.63
2018-12-24T01:20:24.112Z,4.65
2018-12-24T01:21:23.995Z,4.65
2018-12-24T01:22:23.921Z,4.63
2018-12-24T01:23:23.925Z,4.69
2018-12-24T01:24:23.857Z,4.66
2018-12-24T01:25:23.791Z,4.62
2018-12-24T01:26:23.789Z,4.63
2018-12-24T01:27:23.717Z,4.67
2018-12-24T01:28:23.690Z,4.69
2018-12-24T01:29:23.627Z,4.62
2018-12-24T01:30:23.597Z,4.65
2018-12-24T01:31:23.536Z,4.65
2018-12-24T01:32:23.512Z,4.60
2018-12-24T01:33:23.442Z,4.59
2018-12-24T01:34:23.435Z,4.55
2018-12-24T01:35:23.361Z,4.55
2018-12-24T01:36:23.323Z,4.48
2018-12-24T01:37:23.283Z,4.45
2018-12-24T01:38:23.253Z,4.50
2018-12-24T01:39:23.292Z,4.52
2018-12-24T01:40:23.231Z,4.55
2018-12-24T01:41:23.170Z,4.37
2018-12-24T01:42:23.157Z,4.36
2018-12-24T01:43:23.137Z,4.41
2018-12-24T01:44:23.013Z,4.41
2018-12-24T01:45:23.055Z,4.44
2018-12-24T01:46:23.018Z,4.44
2018-12-24T01:47:23.938Z,4.32
2018-12-24T01:48:22.878Z,4.36
2018-12-24T01:49:22.877Z,4.33
2018-12-24T01:50:23.422Z,4.30
2018-12-24T01:51:22.756Z,4.42
2018-12-24T01:52:22.727Z,4.34
2018-12-24T01:53:22.698Z,4.34
2018-12-24T01:54:22.658Z,4.33
2018-12-24T01:55:22.586Z,4.29
2018-12-24T01:56:22.568Z,4.36
2018-12-24T01:57:23.394Z,4.34
2018-12-24T01:58:22.448Z,4.32
2018-12-24T01:59:22.372Z,4.41
2018-12-24T02:00:22.298Z,4.36
2018-12-24T02:01:22.290Z,4.32
2018-12-24T02:02:22.924Z,4.36
2018-12-24T02:03:22.171Z,4.37
2018-12-24T02:04:22.113Z,4.29
2018-12-24T02:05:22.078Z,4.32
2018-12-24T02:06:22.040Z,4.34
2018-12-24T02:07:21.977Z,4.24
2018-12-24T02:08:21.922Z,4.32
2018-12-24T02:09:21.905Z,4.16
2018-12-24T02:10:21.855Z,4.23
2018-12-24T02:11:21.836Z,4.26
2018-12-24T02:12:21.769Z,4.29
2018-12-24T02:13:21.752Z,4.20
2018-12-24T02:14:21.684Z,4.15
2018-12-24T02:15:21.642Z,4.30
2018-12-24T02:16:21.570Z,4.26
2018-12-24T02:17:21.553Z,4.23
2018-12-24T02:18:21.485Z,4.14
2018-12-24T02:19:21.448Z,4.11
2018-12-24T02:20:21.414Z,4.16
2018-12-24T02:21:21.369Z,4.14
2018-12-24T02:22:21.335Z,4.20
2018-12-24T02:23:21.263Z,4.22
2018-12-24T02:24:21.244Z,4.24
2018-12-24T02:25:21.212Z,4.24
2018-12-24T02:26:21.150Z,4.20
2018-12-24T02:27:21.116Z,4.16
2018-12-24T02:28:21.067Z,4.15
2018-12-24T02:29:21.004Z,4.15
2018-12-24T02:30:21.040Z,4.15
2018-12-24T02:31:20.945Z,4.09
2018-12-24T02:32:20.939Z,4.11
2018-12-24T02:33:20.889Z,4.16
2018-12-24T02:34:20.783Z,4.14
2018-12-24T02:35:20.762Z,4.09
2018-12-24T02:36:20.713Z,4.14
2018-12-24T02:37:20.657Z,4.00
2018-12-24T02:38:20.623Z,4.08
2018-12-24T02:39:20.572Z,4.04
2018-12-24T02:40:20.526Z,4.12
2018-12-24T02:41:20.493Z,4.05
2018-12-24T02:42:20.460Z,4.00
2018-12-24T02:43:20.386Z,4.09
2018-12-24T02:44:20.344Z,4.04
2018-12-24T02:45:20.326Z,4.11
2018-12-24T02:46:20.250Z,4.08
2018-12-24T02:47:20.217Z,4.09
2018-12-24T02:48:20.185Z,4.06
2018-12-24T02:49:20.140Z,4.16
2018-12-24T02:50:20.206Z,4.15
2018-12-24T02:51:20.028Z,4.14
2018-12-24T02:52:20.011Z,4.09
2018-12-24T02:53:19.943Z,4.18
2018-12-24T02:54:19.918Z,4.14
2018-12-24T02:55:19.894Z,4.15
2018-12-24T02:56:19.833Z,4.14
2018-12-24T02:57:19.837Z,4.11
2018-12-24T02:58:19.728Z,4.22
2018-12-24T02:59:19.709Z,4.16
2018-12-24T03:00:19.665Z,4.23
2018-12-24T03:01:19.616Z,4.11
2018-12-24T03:02:19.554Z,4.22
2018-12-24T03:03:19.528Z,4.14
2018-12-24T03:04:19.470Z,4.23
2018-12-24T03:05:19.425Z,4.16
2018-12-24T03:06:19.391Z,4.22
2018-12-24T03:07:19.349Z,4.20
2018-12-24T03:08:19.287Z,4.16
2018-12-24T03:09:19.252Z,4.18
2018-12-24T03:10:19.228Z,4.23
2018-12-24T03:11:19.170Z,4.16
2018-12-24T03:12:19.131Z,4.22
2018-12-24T03:13:19.078Z,4.18
2018-12-24T03:14:19.049Z,4.20
2018-12-24T03:15:18.982Z,4.14
2018-12-24T03:16:18.987Z,4.20
2018-12-24T03:17:18.890Z,4.16
2018-12-24T03:18:18.909Z,4.16
2018-12-24T03:19:18.800Z,4.14
2018-12-24T03:20:18.780Z,4.16
2018-12-24T03:21:18.744Z,4.14
2018-12-24T03:22:18.682Z,4.08
2018-12-24T03:23:18.636Z,4.11
2018-12-24T03:24:18.586Z,4.04
2018-12-24T03:25:18.575Z,4.06
2018-12-24T03:26:18.544Z,4.04
2018-12-24T03:27:18.483Z,4.05
2018-12-24T03:28:18.435Z,4.00
2018-12-24T03:29:18.397Z,3.96
2018-12-24T03:30:18.560Z,4.02
2018-12-24T03:31:18.297Z,3.98
2018-12-24T03:32:18.302Z,3.93
2018-12-24T03:33:18.212Z,3.96
2018-12-24T03:34:18.188Z,3.97
2018-12-24T03:35:18.137Z,3.97
2018-12-24T03:36:18.105Z,3.88
2018-12-24T03:37:18.032Z,3.90
2018-12-24T03:38:17.966Z,3.96
2018-12-24T03:39:17.932Z,3.91
2018-12-24T03:40:17.910Z,3.87
2018-12-24T03:41:17.862Z,3.91
2018-12-24T03:42:17.825Z,3.87
2018-12-24T03:43:17.761Z,3.87
2018-12-24T03:44:17.759Z,3.79
2018-12-24T03:45:17.736Z,3.80
2018-12-24T03:46:17.643Z,3.87
2018-12-24T03:47:17.591Z,3.86
2018-12-24T03:48:17.568Z,3.86
2018-12-24T03:49:17.480Z,3.84
2018-12-24T03:50:17.447Z,3.80
2018-12-24T03:51:17.404Z,3.83
2018-12-24T03:52:17.381Z,3.84
2018-12-24T03:53:17.424Z,3.86
2018-12-24T03:54:17.289Z,3.83
2018-12-24T03:55:17.237Z,3.75
2018-12-24T03:56:17.175Z,3.79
2018-12-24T03:57:17.141Z,3.73
2018-12-24T03:58:17.098Z,3.73
2018-12-24T03:59:17.077Z,3.80
2018-12-24T04:00:17.015Z,3.65
2018-12-24T04:01:16.965Z,3.76
2018-12-24T04:02:16.939Z,3.78
2018-12-24T04:03:16.882Z,3.78
2018-12-24T04:04:16.852Z,3.78
2018-12-24T04:05:16.791Z,3.83
2018-12-24T04:06:16.755Z,3.78
2018-12-24T04:07:16.698Z,3.80
2018-12-24T04:08:16.655Z,3.83
2018-12-24T04:09:16.615Z,3.72
2018-12-24T04:10:16.557Z,3.78
2018-12-24T04:11:16.538Z,3.69
2018-12-24T04:12:16.510Z,3.69
2018-12-24T04:13:22.521Z,3.68
2018-12-24T04:14:16.391Z,3.69
2018-12-24T04:15:16.357Z,3.76
2018-12-24T04:16:16.299Z,3.79
2018-12-24T04:17:16.252Z,3.73
2018-12-24T04:18:16.247Z,3.80
2018-12-24T04:19:16.181Z,3.70
2018-12-24T04:20:16.121Z,3.76
2018-12-24T04:21:16.129Z,3.78
2018-12-24T04:22:16.035Z,3.79
2018-12-24T04:23:15.999Z,3.79
2018-12-24T04:24:15.948Z,3.75
2018-12-24T04:25:15.920Z,3.79
2018-12-24T04:26:15.993Z,3.76
2018-12-24T04:27:15.819Z,3.78
2018-12-24T04:28:15.787Z,3.79
2018-12-24T04:29:15.822Z,3.76
2018-12-24T04:30:15.687Z,3.80
2018-12-24T04:31:15.633Z,3.80
2018-12-24T04:32:15.609Z,3.80
2018-12-24T04:33:15.584Z,3.84
2018-12-24T04:34:15.567Z,3.86
2018-12-24T04:35:15.459Z,3.86
2018-12-24T04:36:15.411Z,3.83
2018-12-24T04:37:15.371Z,3.88
2018-12-24T04:38:15.337Z,3.88
2018-12-24T04:39:15.340Z,3.94
2018-12-24T04:40:15.263Z,3.90
2018-12-24T04:41:15.200Z,3.87
2018-12-24T04:42:15.148Z,3.91
2018-12-24T04:43:15.108Z,3.94
2018-12-24T04:44:15.099Z,4.02
2018-12-24T04:45:15.010Z,3.98
2018-12-24T04:46:14.982Z,3.98
2018-12-24T04:47:14.923Z,3.98
2018-12-24T04:48:14.888Z,3.98
2018-12-24T04:49:14.871Z,3.97
2018-12-24T04:50:14.798Z,4.02
2018-12-24T04:51:14.765Z,4.05
2018-12-24T04:52:14.708Z,4.05
2018-12-24T04:53:14.728Z,4.08
2018-12-24T04:54:14.615Z,3.98
2018-12-24T04:55:14.570Z,3.98
2018-12-24T04:56:14.534Z,4.04
2018-12-24T04:57:14.477Z,4.09
2018-12-24T04:58:14.433Z,4.05
2018-12-24T04:59:14.401Z,4.05
2018-12-24T05:00:14.385Z,4.08
2018-12-24T05:01:14.324Z,4.09
2018-12-24T05:02:14.301Z,4.15
2018-12-24T05:03:14.261Z,4.12
2018-12-24T05:04:14.170Z,4.12
2018-12-24T05:05:14.138Z,4.15
2018-12-24T05:06:14.083Z,4.14
2018-12-24T05:07:14.049Z,4.14
2018-12-24T05:08:14.006Z,4.12
2018-12-24T05:09:13.966Z,4.22
2018-12-24T05:10:13.931Z,4.20
2018-12-24T05:11:13.946Z,4.16
2018-12-24T05:12:13.844Z,4.29
2018-12-24T05:13:13.790Z,4.18
2018-12-24T05:14:13.743Z,4.29
2018-12-24T05:15:13.701Z,4.16
2018-12-24T05:16:13.658Z,4.32
2018-12-24T05:17:13.650Z,4.34
2018-12-24T05:18:13.578Z,4.32
2018-12-24T05:19:13.551Z,4.36
2018-12-24T05:20:13.490Z,4.29
2018-12-24T05:21:13.462Z,4.36
2018-12-24T05:22:13.392Z,4.36
2018-12-24T05:23:13.358Z,4.34
2018-12-24T05:24:13.327Z,4.42
2018-12-24T05:25:13.271Z,4.40
2018-12-24T05:26:13.220Z,4.42
2018-12-24T05:27:13.163Z,4.45
2018-12-24T05:28:13.114Z,4.42
2018-12-24T05:29:13.092Z,4.42
2018-12-24T05:30:13.038Z,4.40
2018-12-24T05:31:12.994Z,4.48
2018-12-24T05:32:12.951Z,4.48
2018-12-24T05:33:12.962Z,4.50
2018-12-24T05:34:12.862Z,4.52
2018-12-24T05:35:12.818Z,4.55
2018-12-24T05:36:12.793Z,4.58
2018-12-24T05:37:12.779Z,4.62
2018-12-24T05:38:12.709Z,4.52
2018-12-24T05:39:12.649Z,4.54
2018-12-24T05:40:12.661Z,4.65
2018-12-24T05:41:12.596Z,4.65
2018-12-24T05:42:12.497Z,4.63
2018-12-24T05:43:12.562Z,4.59
2018-12-24T05:44:12.442Z,4.65
2018-12-24T05:45:12.370Z,4.65
2018-12-24T05:46:12.314Z,4.60
2018-12-24T05:47:12.300Z,4.62
2018-12-24T05:48:12.335Z,4.69
2018-12-24T05:49:12.269Z,4.70
2018-12-24T05:50:12.154Z,4.70
2018-12-24T05:51:12.118Z,4.69
2018-12-24T05:52:12.057Z,4.65
2018-12-24T05:53:12.060Z,4.58
2018-12-24T05:54:11.989Z,4.70
2018-12-24T05:55:11.935Z,4.77
2018-12-24T05:56:11.935Z,4.69
2018-12-24T05:57:11.847Z,4.75
2018-12-24T05:58:11.794Z,4.73
2018-12-24T05:59:11.757Z,4.69
2018-12-24T06:00:11.703Z,4.69
2018-12-24T06:01:11.654Z,4.75
2018-12-24T06:02:11.624Z,4.67
2018-12-24T06:03:11.582Z,4.69
2018-12-24T06:04:11.516Z,4.70
2018-12-24T06:05:11.491Z,4.67
2018-12-24T06:06:11.457Z,4.85
2018-12-24T06:07:11.408Z,4.78
2018-12-24T06:08:11.416Z,4.91
2018-12-24T06:09:11.325Z,4.88
2018-12-24T06:10:11.274Z,4.91
2018-12-24T06:11:11.223Z,4.82
2018-12-24T06:12:11.189Z,4.86
2018-12-24T06:13:11.143Z,4.82
2018-12-24T06:14:11.118Z,4.89
2018-12-24T06:15:11.048Z,4.94
2018-12-24T06:16:11.013Z,4.86
2018-12-24T06:17:10.975Z,4.88
2018-12-24T06:18:10.931Z,4.92
2018-12-24T06:19:10.874Z,4.91
2018-12-24T06:20:10.851Z,4.91
2018-12-24T06:21:10.819Z,4.88
2018-12-24T06:22:10.774Z,4.91
2018-12-24T06:23:10.724Z,4.91
2018-12-24T06:24:10.659Z,4.91
2018-12-24T06:25:10.621Z,4.96
2018-12-24T06:26:10.654Z,4.94
2018-12-24T06:27:10.528Z,4.94
2018-12-24T06:28:10.483Z,4.96
2018-12-24T06:29:10.509Z,4.97
2018-12-24T06:30:10.403Z,4.94
2018-12-24T06:31:10.407Z,4.97
2018-12-24T06:32:10.314Z,4.97
2018-12-24T06:33:10.265Z,4.94
2018-12-24T06:34:10.239Z,4.86
2018-12-24T06:35:10.215Z,4.99
2018-12-24T06:36:10.143Z,4.96
2018-12-24T06:37:10.121Z,4.92
2018-12-24T06:38:10.778Z,5.00
2018-12-24T06:39:09.994Z,4.99
2018-12-24T06:40:09.962Z,5.00
2018-12-24T06:41:09.928Z,5.07
2018-12-24T06:42:09.871Z,5.02
2018-12-24T06:43:09.822Z,5.03
2018-12-24T06:44:09.773Z,5.03
2018-12-24T06:45:09.735Z,5.00
2018-12-24T06:46:09.708Z,5.04
2018-12-24T06:47:09.643Z,5.04
2018-12-24T06:48:09.618Z,5.07
2018-12-24T06:49:09.619Z,5.00
2018-12-24T06:50:09.567Z,5.07
2018-12-24T06:51:09.468Z,5.02
2018-12-24T06:52:09.462Z,5.04
2018-12-24T06:53:09.403Z,5.06
2018-12-24T06:54:09.342Z,5.06
2018-12-24T06:55:09.308Z,5.07
2018-12-24T06:56:09.263Z,5.09
2018-12-24T06:57:09.223Z,5.12
2018-12-24T06:58:09.183Z,5.12
2018-12-24T06:59:09.121Z,5.06
2018-12-24T07:00:09.081Z,5.12
2018-12-24T07:01:09.057Z,5.04
2018-12-24T07:02:09.045Z,5.07
2018-12-24T07:03:08.967Z,5.13
2018-12-24T07:04:08.910Z,5.04
2018-12-24T07:05:08.864Z,5.03
2018-12-24T07:06:08.820Z,5.18
2018-12-24T07:07:08.775Z,5.04
2018-12-24T07:08:08.729Z,5.06
2018-12-24T07:09:08.706Z,5.02
2018-12-24T07:10:08.646Z,4.94
2018-12-24T07:11:08.595Z,4.97
2018-12-24T07:12:08.564Z,5.02
2018-12-24T07:13:08.511Z,4.96
2018-12-24T07:14:15.357Z,4.97
2018-12-24T07:15:08.423Z,4.99
2018-12-24T07:16:08.388Z,4.99
2018-12-24T07:17:08.326Z,5.00
2018-12-24T07:18:08.311Z,4.99
2018-12-24T07:19:08.269Z,5.02
2018-12-24T07:20:08.227Z,5.02
2018-12-24T07:21:08.157Z,5.00
2018-12-24T07:22:08.133Z,4.94
2018-12-24T07:23:08.066Z,4.94
2018-12-24T07:24:08.031Z,4.94
2018-12-24T07:25:07.978Z,4.94
2018-12-24T07:26:09.053Z,4.94
2018-12-24T07:27:07.912Z,4.88
2018-12-24T07:28:07.856Z,4.88
2018-12-24T07:29:07.833Z,4.86
2018-12-24T07:30:07.761Z,4.91
2018-12-24T07:31:07.735Z,4.80
2018-12-24T07:32:07.683Z,4.89
2018-12-24T07:33:07.675Z,4.92
2018-12-24T07:34:07.598Z,4.92
2018-12-24T07:35:07.557Z,4.86
2018-12-24T07:36:07.503Z,4.84
2018-12-24T07:37:07.462Z,4.84
2018-12-24T07:38:07.414Z,4.84
2018-12-24T07:39:07.372Z,4.85
2018-12-24T07:40:07.342Z,4.88
2018-12-24T07:41:07.315Z,4.73
2018-12-24T07:42:07.263Z,4.78
2018-12-24T07:43:07.207Z,4.84
2018-12-24T07:44:07.155Z,4.86
2018-12-24T07:45:07.113Z,4.86
2018-12-24T07:46:07.066Z,4.85
2018-12-24T07:47:07.030Z,4.75
2018-12-24T07:48:06.989Z,4.84
2018-12-24T07:49:06.951Z,4.75
2018-12-24T07:50:06.911Z,4.82
2018-12-24T07:51:06.853Z,4.80
2018-12-24T07:52:06.805Z,4.75
2018-12-24T07:53:06.761Z,4.82
2018-12-24T07:54:06.745Z,4.80
2018-12-24T07:55:06.691Z,4.82
2018-12-24T07:56:06.634Z,4.86
2018-12-24T07:57:06.590Z,4.85
2018-12-24T07:58:06.534Z,4.82
2018-12-24T07:59:06.499Z,4.82
2018-12-24T08:00:06.450Z,4.82
2018-12-24T08:01:06.441Z,4.80
2018-12-24T08:02:06.358Z,4.86
2018-12-24T08:03:06.356Z,4.70
2018-12-24T08:04:06.279Z,4.84
2018-12-24T08:05:06.242Z,4.82
2018-12-24T08:06:06.191Z,4.84
2018-12-24T08:07:06.158Z,4.84
2018-12-24T08:08:06.108Z,4.88
2018-12-24T08:09:06.064Z,4.85
2018-12-24T08:10:06.023Z,4.78
2018-12-24T08:11:05.982Z,4.84
2018-12-24T08:12:05.928Z,4.84
2018-12-24T08:13:05.885Z,4.82
2018-12-24T08:14:05.861Z,4.80
2018-12-24T08:15:05.794Z,4.86
2018-12-24T08:16:05.757Z,4.91
2018-12-24T08:17:05.740Z,4.92
2018-12-24T08:18:05.674Z,4.92
2018-12-24T08:19:05.630Z,4.89
2018-12-24T08:20:05.574Z,4.94
2018-12-24T08:21:05.537Z,4.84
2018-12-24T08:22:05.526Z,4.91
2018-12-24T08:23:05.455Z,4.85
2018-12-24T08:24:05.402Z,4.91
2018-12-24T08:25:05.380Z,4.88
2018-12-24T08:26:05.328Z,4.84
2018-12-24T08:27:05.269Z,4.80
2018-12-24T08:28:05.235Z,4.89
2018-12-24T08:29:05.181Z,4.82
2018-12-24T08:30:05.142Z,4.80
2018-12-24T08:31:05.094Z,4.89
2018-12-24T08:32:05.055Z,4.91
2018-12-24T08:33:05.015Z,4.80
2018-12-24T08:34:04.971Z,4.75
2018-12-24T08:35:04.922Z,4.69
2018-12-24T08:36:04.917Z,4.67
2018-12-24T08:37:04.837Z,4.73
2018-12-24T08:38:04.812Z,4.73
2018-12-24T08:39:04.777Z,4.78
2018-12-24T08:40:04.722Z,4.70
2018-12-24T08:41:04.698Z,4.72
2018-12-24T08:42:04.617Z,4.70
2018-12-24T08:43:04.594Z,4.72
2018-12-24T08:44:04.544Z,4.75
2018-12-24T08:45:04.496Z,4.69
2018-12-24T08:46:04.435Z,4.59
2018-12-24T08:47:04.398Z,4.67
2018-12-24T08:48:04.355Z,4.60
2018-12-24T08:49:04.332Z,4.62
2018-12-24T08:50:04.399Z,4.66
2018-12-24T08:51:04.271Z,4.63
2018-12-24T08:52:04.191Z,4.65
2018-12-24T08:53:04.148Z,4.63
2018-12-24T08:54:04.098Z,4.59
2018-12-24T08:55:04.040Z,4.67
2018-12-24T08:56:04.004Z,4.67
2018-12-24T08:57:03.959Z,4.70
2018-12-24T08:58:03.931Z,4.66
2018-12-24T08:59:03.889Z,4.72
2018-12-24T09:00:03.877Z,4.77
2018-12-24T09:01:03.811Z,4.66
2018-12-24T09:02:03.770Z,4.75
2018-12-24T09:03:03.702Z,4.67
2018-12-24T09:04:03.683Z,4.66
2018-12-24T09:05:03.634Z,4.63
2018-12-24T09:06:03.574Z,4.66
2018-12-24T09:07:03.542Z,4.63
2018-12-24T09:08:03.485Z,4.65
2018-12-24T09:09:03.450Z,4.63
2018-12-24T09:10:03.414Z,4.63
2018-12-24T09:11:03.338Z,4.72
2018-12-24T09:12:03.309Z,4.65
2018-12-24T09:13:03.262Z,4.70
2018-12-24T09:14:03.211Z,4.58
2018-12-24T09:15:03.177Z,4.63
2018-12-24T09:16:03.135Z,4.66
2018-12-24T09:17:03.091Z,4.55
2018-12-24T09:18:03.047Z,4.59
2018-12-24T09:19:02.998Z,4.60
2018-12-24T09:20:02.952Z,4.66
2018-12-24T09:21:02.901Z,4.65
2018-12-24T09:22:02.869Z,4.65
2018-12-24T09:23:02.936Z,4.60
2018-12-24T09:24:02.795Z,4.62
2018-12-24T09:25:02.745Z,4.62
2018-12-24T09:26:02.683Z,4.55
2018-12-24T09:27:02.649Z,4.55
2018-12-24T09:28:02.783Z,4.58
2018-12-24T09:29:02.557Z,4.48
2018-12-24T09:30:02.522Z,4.55
2018-12-24T09:31:02.480Z,4.55
2018-12-24T09:32:02.430Z,4.58
2018-12-24T09:33:02.389Z,4.54
2018-12-24T09:34:02.380Z,4.52
2018-12-24T09:35:02.303Z,4.52
2018-12-24T09:36:02.254Z,4.52
2018-12-24T09:37:02.229Z,4.51
2018-12-24T09:38:02.165Z,4.50
2018-12-24T09:39:02.127Z,4.51
2018-12-24T09:40:02.083Z,4.50
2018-12-24T09:41:02.047Z,4.55
2018-12-24T09:42:01.988Z,4.40
2018-12-24T09:43:01.954Z,4.45
2018-12-24T09:44:01.900Z,4.41
2018-12-24T09:45:01.870Z,4.41
2018-12-24T09:46:01.826Z,4.32
2018-12-24T09:47:01.804Z,4.29
2018-12-24T09:48:01.742Z,4.33
2018-12-24T09:49:01.726Z,4.34
2018-12-24T09:50:01.661Z,4.34
2018-12-24T09:51:01.593Z,4.42
2018-12-24T09:52:01.565Z,4.40
2018-12-24T09:53:01.532Z,4.54
2018-12-24T09:54:01.480Z,4.63
2018-12-24T09:55:01.459Z,4.86
2018-12-24T09:56:01.383Z,4.92
2018-12-24T09:57:01.361Z,4.91
2018-12-24T09:58:01.300Z,5.04
2018-12-24T09:59:01.241Z,5.04
2018-12-24T10:00:01.246Z,5.02
2018-12-24T10:01:03.397Z,5.00
2018-12-24T10:02:01.121Z,4.92
2018-12-24T10:03:01.079Z,4.96
2018-12-24T10:04:02.964Z,4.99
2018-12-24T10:05:01.005Z,4.89
2018-12-24T10:06:00.937Z,4.88
2018-12-24T10:07:00.898Z,4.91
2018-12-24T10:08:00.855Z,4.85
2018-12-24T10:09:00.807Z,4.91
2018-12-24T10:10:00.791Z,4.77
2018-12-24T10:11:00.745Z,4.86
2018-12-24T10:12:00.691Z,4.86
2018-12-24T10:13:00.648Z,4.73
2018-12-24T10:14:00.600Z,4.77
2018-12-24T10:15:08.006Z,4.73
2018-12-24T10:16:00.506Z,4.70
2018-12-24T10:17:00.656Z,4.66
2018-12-24T10:18:00.585Z,4.66
2018-12-24T10:19:00.389Z,4.72
2018-12-24T10:20:00.335Z,4.59
2018-12-24T10:21:00.301Z,4.66
2018-12-24T10:22:00.321Z,4.66
2018-12-24T10:23:00.211Z,4.67
2018-12-24T10:24:00.203Z,4.63
2018-12-24T10:25:00.162Z,4.62
2018-12-24T10:26:00.076Z,4.70
2018-12-24T10:27:00.034Z,4.78
2018-12-24T10:27:59.992Z,4.80
2018-12-24T10:28:59.941Z,4.70
2018-12-24T10:29:59.918Z,4.78
2018-12-24T10:30:59.855Z,4.66
2018-12-24T10:31:59.807Z,4.70
2018-12-24T10:32:59.776Z,4.75
2018-12-24T10:33:59.728Z,4.84
2018-12-24T10:34:59.680Z,4.85
2018-12-24T10:35:59.675Z,4.86
2018-12-24T10:36:59.600Z,4.91
2018-12-24T10:37:59.557Z,5.15
2018-12-24T10:38:59.501Z,5.27
2018-12-24T10:39:59.469Z,5.48
2018-12-24T10:40:59.421Z,5.39
2018-12-24T10:41:59.375Z,5.94
2018-12-24T10:42:59.363Z,5.83
2018-12-24T10:43:59.318Z,5.90
2018-12-24T10:44:59.248Z,5.75
2018-12-24T10:45:59.191Z,5.42
2018-12-24T10:46:59.168Z,5.31
2018-12-24T10:47:59.111Z,5.22
2018-12-24T10:48:59.086Z,5.13
2018-12-24T10:49:59.049Z,4.94
2018-12-24T10:50:59.010Z,4.88
2018-12-24T10:51:58.952Z,4.70
2018-12-24T10:52:58.930Z,4.75
2018-12-24T10:53:58.875Z,4.63
2018-12-24T10:54:58.819Z,4.51
2018-12-24T10:55:58.775Z,4.58
2018-12-24T10:56:58.743Z,4.48
2018-12-24T10:57:58.725Z,4.58
2018-12-24T10:58:58.690Z,4.60
2018-12-24T10:59:58.617Z,4.88
2018-12-24T11:00:58.565Z,4.91
2018-12-24T11:01:58.526Z,4.88
2018-12-24T11:02:58.483Z,4.96
2018-12-24T11:03:58.457Z,4.89
2018-12-24T11:04:58.466Z,5.35
2018-12-24T11:05:58.401Z,5.58
2018-12-24T11:06:58.314Z,6.04
2018-12-24T11:07:58.281Z,6.69
2018-12-24T11:08:58.223Z,6.81
2018-12-24T11:09:58.187Z,7.28
2018-12-24T11:10:58.150Z,7.63
2018-12-24T11:11:58.133Z,7.74
2018-12-24T11:12:58.071Z,7.90
2018-12-24T11:13:58.033Z,8.01
2018-12-24T11:14:57.977Z,7.77
2018-12-24T11:15:57.940Z,8.01
2018-12-24T11:16:57.933Z,8.22
2018-12-24T11:17:57.849Z,8.22
2018-12-24T11:18:57.841Z,7.80
2018-12-24T11:19:57.795Z,7.74
2018-12-24T11:20:57.733Z,8.02
2018-12-24T11:21:57.702Z,8.40
2018-12-24T11:22:57.685Z,8.37
2018-12-24T11:23:57.645Z,8.83
2018-12-24T11:24:57.607Z,8.66
2018-12-24T11:25:57.585Z,8.98
2018-12-24T11:26:57.536Z,9.08
2018-12-24T11:27:57.519Z,8.76
2018-12-24T11:28:57.458Z,8.73
2018-12-24T11:29:57.432Z,8.41
2018-12-24T11:30:57.387Z,8.66
2018-12-24T11:31:57.335Z,8.16
2018-12-24T11:32:57.307Z,8.10
2018-12-24T11:33:57.282Z,7.89
2018-12-24T11:34:57.249Z,8.29
2018-12-24T11:35:57.214Z,8.02
2018-12-24T11:36:57.178Z,7.77
2018-12-24T11:37:57.144Z,7.23
2018-12-24T11:38:57.114Z,6.79
2018-12-24T11:39:57.085Z,6.54
2018-12-24T11:40:57.064Z,6.43
2018-12-24T11:41:57.095Z,6.49
2018-12-24T11:42:57.001Z,6.19
2018-12-24T11:43:56.973Z,6.14
2018-12-24T11:44:56.894Z,5.91
2018-12-24T11:45:56.850Z,5.78
2018-12-24T11:46:56.826Z,5.54
2018-12-24T11:47:56.831Z,5.54
2018-12-24T11:48:56.738Z,5.22
2018-12-24T11:49:56.707Z,5.12
2018-12-24T11:50:56.663Z,5.12
2018-12-24T11:51:56.683Z,5.10
2018-12-24T11:52:56.586Z,5.13
2018-12-24T11:53:56.570Z,5.12
2018-12-24T11:54:56.530Z,4.96
2018-12-24T11:55:56.511Z,4.92
2018-12-24T11:56:56.447Z,4.94
2018-12-24T11:57:56.412Z,4.94
2018-12-24T11:58:56.351Z,5.07
2018-12-24T11:59:56.427Z,4.97
2018-12-24T12:00:56.284Z,5.07
2018-12-24T12:01:56.229Z,4.99
2018-12-24T12:02:56.199Z,4.94
2018-12-24T12:03:56.170Z,4.82
2018-12-24T12:04:56.132Z,4.70
2018-12-24T12:05:56.078Z,4.75
2018-12-24T12:06:56.035Z,4.70
2018-12-24T12:07:56.148Z,4.72
2018-12-24T12:08:55.951Z,4.72
2018-12-24T12:09:55.903Z,4.70
2018-12-24T12:10:55.987Z,4.70
2018-12-24T12:11:55.860Z,4.72
2018-12-24T12:12:55.912Z,4.62
2018-12-24T12:13:55.750Z,4.60
2018-12-24T12:14:55.702Z,4.70
2018-12-24T12:15:55.663Z,4.75
2018-12-24T12:16:55.672Z,4.67
2018-12-24T12:17:55.581Z,4.75
2018-12-24T12:18:55.527Z,4.70
2018-12-24T12:19:55.507Z,4.63
2018-12-24T12:20:55.447Z,4.80
2018-12-24T12:21:55.409Z,4.77
2018-12-24T12:22:55.369Z,4.86
2018-12-24T12:23:55.339Z,4.82
2018-12-24T12:24:55.289Z,4.75
2018-12-24T12:25:55.250Z,4.78
2018-12-24T12:26:55.205Z,4.67
2018-12-24T12:27:55.166Z,4.73
2018-12-24T12:28:55.124Z,4.70
2018-12-24T12:29:55.090Z,4.72
2018-12-24T12:30:55.038Z,4.66
2018-12-24T12:31:55.008Z,4.66
2018-12-24T12:32:54.960Z,4.66
2018-12-24T12:33:54.907Z,4.73
2018-12-24T12:34:54.867Z,4.86
2018-12-24T12:35:54.824Z,4.88
2018-12-24T12:36:54.781Z,4.85
2018-12-24T12:37:54.733Z,4.86
2018-12-24T12:38:54.736Z,4.84
2018-12-24T12:39:54.671Z,4.89
2018-12-24T12:40:54.623Z,4.78
2018-12-24T12:41:54.578Z,4.85
2018-12-24T12:42:54.530Z,4.88
2018-12-24T12:43:54.496Z,4.84
2018-12-24T12:44:54.488Z,4.73
2018-12-24T12:45:54.403Z,4.75
2018-12-24T12:46:54.406Z,4.70
2018-12-24T12:47:54.315Z,4.67
2018-12-24T12:48:54.291Z,4.70
2018-12-24T12:49:54.251Z,4.62
2018-12-24T12:50:54.226Z,4.65
2018-12-24T12:51:54.196Z,4.55
2018-12-24T12:52:54.122Z,4.55
2018-12-24T12:53:54.067Z,4.59
2018-12-24T12:54:54.111Z,4.62
2018-12-24T12:55:53.968Z,4.55
2018-12-24T12:56:53.937Z,4.65
2018-12-24T12:57:53.891Z,4.66
2018-12-24T12:58:53.866Z,4.66
2018-12-24T12:59:53.820Z,4.62
2018-12-24T13:00:53.772Z,4.67
2018-12-24T13:01:53.717Z,4.65
2018-12-24T13:02:53.732Z,4.59
2018-12-24T13:03:53.636Z,4.55
2018-12-24T13:04:53.616Z,4.51
2018-12-24T13:05:53.559Z,4.51
2018-12-24T13:06:53.512Z,4.37
2018-12-24T13:07:53.598Z,4.32
2018-12-24T13:08:53.419Z,4.18
2018-12-24T13:09:53.386Z,4.30
2018-12-24T13:10:53.360Z,4.20
2018-12-24T13:11:53.325Z,4.30
2018-12-24T13:12:53.309Z,4.16
2018-12-24T13:13:53.228Z,4.20
2018-12-24T13:14:53.174Z,4.20
2018-12-24T13:15:59.556Z,4.22
2018-12-24T13:16:53.098Z,4.16
2018-12-24T13:17:53.046Z,4.29